Terminal Aerodrome Forecast
Issued by NWS Louisville, KY

Home | Current Version | Previous Version | Text Only | Print | Product List | Glossary On
Versions: 1 2 3 4 5 6 7 8 9 10 11 12 13 14 15 16 17 18 19 20
000
FTUS43 KLMK 260600 AAA
TAFLEX
TAF AMD
KLEX 260644Z 2607/2706 VRB06KT 3SM BR BKN009 OVC012
      TEMPO 2607/2608 1SM BR BKN004
     FM260800 33013G20KT 4SM -RASN BR BKN008
     FM261100 33010G17KT 6SM BR BKN012
     FM261700 31010KT P6SM BKN020
     FM262200 VRB04KT P6SM SCT025 BKN050=

USA.gov is the U.S. government's official web portal to all federal, state and local government web resources and services.